sensor_id;sensor_type;location;lat;lon;timestamp;temperature;humidity
12889;DHT22;56848;49.896;11.424;2022-09-27T04:02:11;8.60;99.90
12889;DHT22;56848;49.896;11.424;2022-09-27T04:04:37;8.60;99.90
12889;DHT22;56848;49.896;11.424;2022-09-27T04:07:03;8.60;99.90
12889;DHT22;56848;49.896;11.424;2022-09-27T04:09:28;8.70;99.90
12889;DHT22;56848;49.896;11.424;2022-09-27T04:11:54;8.60;99.90
12889;DHT22;56848;49.896;11.424;2022-09-27T04:14:19;8.70;99.90
12889;DHT22;56848;49.896;11.424;2022-09-27T04:16:45;8.70;99.90
12889;DHT22;56848;49.896;11.424;2022-09-27T04:19:10;8.70;99.90
12889;DHT22;56848;49.896;11.424;2022-09-27T04:21:36;8.80;99.90
12889;DHT22;56848;49.896;11.424;2022-09-27T04:24:02;8.70;99.90
12889;DHT22;56848;49.896;11.424;2022-09-27T04:26:29;8.70;99.90
12889;DHT22;56848;49.896;11.424;2022-09-27T04:28:55;8.70;99.90
12889;DHT22;56848;49.896;11.424;2022-09-27T04:31:21;8.70;99.90
12889;DHT22;56848;49.896;11.424;2022-09-27T04:33:47;8.70;99.90
12889;DHT22;56848;49.896;11.424;2022-09-27T04:36:18;8.70;99.90
12889;DHT22;56848;49.896;11.424;2022-09-27T04:38:54;8.70;99.90
12889;DHT22;56848;49.896;11.424;2022-09-27T04:41:20;8.70;99.90
12889;DHT22;56848;49.896;11.424;2022-09-27T04:43:47;8.70;99.90
12889;DHT22;56848;49.896;11.424;2022-09-27T04:46:13;8.80;99.90
12889;DHT22;56848;49.896;11.424;2022-09-27T04:48:39;8.80;99.90
12889;DHT22;56848;49.896;11.424;2022-09-27T04:51:05;8.70;99.90
12889;DHT22;56848;49.896;11.424;2022-09-27T04:53:31;8.80;99.90
12889;DHT22;56848;49.896;11.424;2022-09-27T04:55:58;8.80;99.90
12889;DHT22;56848;49.896;11.424;2022-09-27T04:58:24;8.80;99.90
12889;DHT22;56848;49.896;11.424;2022-09-27T05:00:50;8.80;99.90
12889;DHT22;56848;49.896;11.424;2022-09-27T05:03:20;8.70;99.90
12889;DHT22;56848;49.896;11.424;2022-09-27T05:05:46;8.80;99.90
12889;DHT22;56848;49.896;11.424;2022-09-27T05:08:12;8.80;99.90
12889;DHT22;56848;49.896;11.424;2022-09-27T05:10:38;8.70;99.90
12889;DHT22;56848;49.896;11.424;2022-09-27T05:13:04;8.70;99.90
12889;DHT22;56848;49.896;11.424;2022-09-27T05:15:31;8.70;99.90
12889;DHT22;56848;49.896;11.424;2022-09-27T05:17:56;8.80;99.90
12889;DHT22;56848;49.896;11.424;2022-09-27T05:20:23;8.70;99.90
12889;DHT22;56848;49.896;11.424;2022-09-27T05:22:50;8.70;99.90
12889;DHT22;56848;49.896;11.424;2022-09-27T05:25:16;8.60;99.90
12889;DHT22;56848;49.896;11.424;2022-09-27T05:27:42;8.50;99.90
12889;DHT22;56848;49.896;11.424;2022-09-27T05:30:08;8.50;99.90
12889;DHT22;56848;49.896;11.424;2022-09-27T05:32:34;8.50;99.90
12889;DHT22;56848;49.896;11.424;2022-09-27T05:35:00;8.50;99.90
12889;DHT22;56848;49.896;11.424;2022-09-27T05:37:26;8.40;99.90
12889;DHT22;56848;49.896;11.424;2022-09-27T05:39:54;8.40;99.90
12889;DHT22;56848;49.896;11.424;2022-09-27T05:42:19;8.50;99.90
12889;DHT22;56848;49.896;11.424;2022-09-27T05:44:45;8.40;99.90
12889;DHT22;56848;49.896;11.424;2022-09-27T05:47:13;8.40;99.90
12889;DHT22;56848;49.896;11.424;2022-09-27T05:49:39;8.40;99.90
12889;DHT22;56848;49.896;11.424;2022-09-27T05:52:05;8.40;99.90
12889;DHT22;56848;49.896;11.424;2022-09-27T05:54:32;8.40;99.90
12889;DHT22;56848;49.896;11.424;2022-09-27T05:56:58;8.50;99.90
12889;DHT22;56848;49.896;11.424;2022-09-27T05:59:25;8.50;99.90
12889;DHT22;56848;49.896;11.424;2022-09-27T06:01:50;8.40;99.90
12889;DHT22;56848;49.896;11.424;2022-09-27T06:04:17;8.50;99.90
12889;DHT22;56848;49.896;11.424;2022-09-27T06:06:43;8.60;99.90
12889;DHT22;56848;49.896;11.424;2022-09-27T06:09:10;8.60;99.90
12889;DHT22;56848;49.896;11.424;2022-09-27T06:11:36;8.60;99.90
12889;DHT22;56848;49.896;11.424;2022-09-27T06:14:02;8.50;99.90
12889;DHT22;56848;49.896;11.424;2022-09-27T06:16:27;8.60;99.90
12889;DHT22;56848;49.896;11.424;2022-09-27T06:18:53;8.60;99.90
12889;DHT22;56848;49.896;11.424;2022-09-27T06:21:19;8.50;99.90
12889;DHT22;56848;49.896;11.424;2022-09-27T06:23:44;8.50;99.90
12889;DHT22;56848;49.896;11.424;2022-09-27T06:26:11;8.60;99.90
12889;DHT22;56848;49.896;11.424;2022-09-27T06:28:37;8.60;99.90
12889;DHT22;56848;49.896;11.424;2022-09-27T06:31:05;8.60;99.90
12889;DHT22;56848;49.896;11.424;2022-09-27T06:33:33;8.60;99.90
12889;DHT22;56848;49.896;11.424;2022-09-27T06:36:06;8.60;99.90
12889;DHT22;56848;49.896;11.424;2022-09-27T06:38:32;8.60;99.90
12889;DHT22;56848;49.896;11.424;2022-09-27T06:41:01;8.70;99.90
12889;DHT22;56848;49.896;11.424;2022-09-27T06:43:28;8.60;99.90
12889;DHT22;56848;49.896;11.424;2022-09-27T06:45:54;8.60;99.90
12889;DHT22;56848;49.896;11.424;2022-09-27T06:48:20;8.70;99.90
12889;DHT22;56848;49.896;11.424;2022-09-27T06:50:46;8.60;99.90
12889;DHT22;56848;49.896;11.424;2022-09-27T06:53:15;8.70;99.90
12889;DHT22;56848;49.896;11.424;2022-09-27T06:55:41;8.70;99.90
12889;DHT22;56848;49.896;11.424;2022-09-27T06:58:09;8.80;99.90
12889;DHT22;56848;49.896;11.424;2022-09-27T07:00:54;8.80;99.90
12889;DHT22;56848;49.896;11.424;2022-09-27T07:03:20;8.80;99.90
12889;DHT22;56848;49.896;11.424;2022-09-27T07:05:57;8.80;99.90
12889;DHT22;56848;49.896;11.424;2022-09-27T07:08:24;8.90;99.90
12889;DHT22;56848;49.896;11.424;2022-09-27T07:10:51;8.80;99.90
12889;DHT22;56848;49.896;11.424;2022-09-27T07:13:19;8.70;99.90
12889;DHT22;56848;49.896;11.424;2022-09-27T07:15:45;8.90;99.90
12889;DHT22;56848;49.896;11.424;2022-09-27T07:18:11;8.80;99.90
12889;DHT22;56848;49.896;11.424;2022-09-27T07:20:36;8.70;99.90
12889;DHT22;56848;49.896;11.424;2022-09-27T07:23:06;8.60;99.90
12889;DHT22;56848;49.896;11.424;2022-09-27T07:25:33;8.70;99.90
12889;DHT22;56848;49.896;11.424;2022-09-27T07:28:04;8.70;99.90
12889;DHT22;56848;49.896;11.424;2022-09-27T07:30:30;8.70;99.90
12889;DHT22;56848;49.896;11.424;2022-09-27T07:32:58;8.70;99.90
12889;DHT22;56848;49.896;11.424;2022-09-27T07:35:24;8.70;99.90
12889;DHT22;56848;49.896;11.424;2022-09-27T07:37:50;8.70;99.90
12889;DHT22;56848;49.896;11.424;2022-09-27T07:40:17;8.60;99.90
12889;DHT22;56848;49.896;11.424;2022-09-27T07:42:43;8.60;99.90
12889;DHT22;56848;49.896;11.424;2022-09-27T07:45:10;8.70;99.90
12889;DHT22;56848;49.896;11.424;2022-09-27T07:47:38;8.80;99.90
12889;DHT22;56848;49.896;11.424;2022-09-27T07:50:05;8.80;99.90
12889;DHT22;56848;49.896;11.424;2022-09-27T07:52:41;8.90;99.90
12889;DHT22;56848;49.896;11.424;2022-09-27T07:55:09;8.90;99.90
12889;DHT22;56848;49.896;11.424;2022-09-27T07:57:35;8.90;99.90
12889;DHT22;56848;49.896;11.424;2022-09-27T08:00:04;8.80;99.90
12889;DHT22;56848;49.896;11.424;2022-09-27T08:02:30;8.80;99.90
12889;DHT22;56848;49.896;11.424;2022-09-27T08:04:57;8.70;99.90
12889;DHT22;56848;49.896;11.424;2022-09-27T08:07:23;8.60;99.90
12889;DHT22;56848;49.896;11.424;2022-09-27T08:09:49;8.60;99.90
12889;DHT22;56848;49.896;11.424;2022-09-27T08:12:15;8.50;99.90
12889;DHT22;56848;49.896;11.424;2022-09-27T08:14:41;8.50;99.90
12889;DHT22;56848;49.896;11.424;2022-09-27T08:17:10;8.60;99.90
12889;DHT22;56848;49.896;11.424;2022-09-27T08:19:35;8.80;99.90
12889;DHT22;56848;49.896;11.424;2022-09-27T08:22:01;8.90;99.90
12889;DHT22;56848;49.896;11.424;2022-09-27T08:24:27;9.10;99.90
12889;DHT22;56848;49.896;11.424;2022-09-27T08:26:53;9.10;99.90
12889;DHT22;56848;49.896;11.424;2022-09-27T08:29:19;9.30;99.90
12889;DHT22;56848;49.896;11.424;2022-09-27T08:31:45;9.40;99.90
12889;DHT22;56848;49.896;11.424;2022-09-27T08:34:10;9.30;99.90
12889;DHT22;56848;49.896;11.424;2022-09-27T08:36:36;9.20;99.90
12889;DHT22;56848;49.896;11.424;2022-09-27T08:39:03;9.20;99.90
12889;DHT22;56848;49.896;11.424;2022-09-27T08:44:16;9.10;99.90
12889;DHT22;56848;49.896;11.424;2022-09-27T08:47:24;9.00;99.90
12889;DHT22;56848;49.896;11.424;2022-09-27T08:49:53;9.00;99.90
12889;DHT22;56848;49.896;11.424;2022-09-27T08:54:55;9.10;99.90
12889;DHT22;56848;49.896;11.424;2022-09-27T08:57:23;8.90;99.90
12889;DHT22;56848;49.896;11.424;2022-09-27T09:00:03;8.90;99.90
12889;DHT22;56848;49.896;11.424;2022-09-27T09:02:30;8.70;99.90
12889;DHT22;56848;49.896;11.424;2022-09-27T09:05:01;8.80;99.90
12889;DHT22;56848;49.896;11.424;2022-09-27T09:10:38;8.80;99.90
12889;DHT22;56848;49.896;11.424;2022-09-27T09:14:02;9.10;99.90
12889;DHT22;56848;49.896;11.424;2022-09-27T09:16:33;9.30;99.90
12889;DHT22;56848;49.896;11.424;2022-09-27T09:34:51;9.20;99.90
12889;DHT22;56848;49.896;11.424;2022-09-27T09:37:39;9.30;99.90
12889;DHT22;56848;49.896;11.424;2022-09-27T09:42:59;9.40;99.90
12889;DHT22;56848;49.896;11.424;2022-09-27T09:45:32;9.40;99.90
12889;DHT22;56848;49.896;11.424;2022-09-27T09:50:48;9.30;99.90
12889;DHT22;56848;49.896;11.424;2022-09-27T09:53:19;9.20;99.90
12889;DHT22;56848;49.896;11.424;2022-09-27T09:55:55;9.30;99.90
12889;DHT22;56848;49.896;11.424;2022-09-27T09:58:29;9.40;99.90
12889;DHT22;56848;49.896;11.424;2022-09-27T10:01:07;9.50;99.90
12889;DHT22;56848;49.896;11.424;2022-09-27T10:03:34;9.50;99.90
12889;DHT22;56848;49.896;11.424;2022-09-27T10:06:00;9.40;99.90
12889;DHT22;56848;49.896;11.424;2022-09-27T10:08:25;9.30;99.90
12889;DHT22;56848;49.896;11.424;2022-09-27T10:10:51;9.30;99.90
12889;DHT22;56848;49.896;11.424;2022-09-27T10:13:21;9.50;99.90
12889;DHT22;56848;49.896;11.424;2022-09-27T10:16:01;9.60;99.90
12889;DHT22;56848;49.896;11.424;2022-09-27T10:18:28;9.80;99.90
12889;DHT22;56848;49.896;11.424;2022-09-27T10:20:57;10.10;99.90
12889;DHT22;56848;49.896;11.424;2022-09-27T10:23:24;10.10;99.90
12889;DHT22;56848;49.896;11.424;2022-09-27T10:25:58;9.90;99.90
12889;DHT22;56848;49.896;11.424;2022-09-27T10:28:45;10.00;99.90
12889;DHT22;56848;49.896;11.424;2022-09-27T10:31:17;9.80;99.90
12889;DHT22;56848;49.896;11.424;2022-09-27T10:34:02;9.80;99.90
12889;DHT22;56848;49.896;11.424;2022-09-27T10:36:34;10.00;99.90
12889;DHT22;56848;49.896;11.424;2022-09-27T10:39:03;10.40;99.90
12889;DHT22;56848;49.896;11.424;2022-09-27T10:41:37;10.70;99.90
12889;DHT22;56848;49.896;11.424;2022-09-27T10:46:46;10.30;99.90
12889;DHT22;56848;49.896;11.424;2022-09-27T10:49:28;10.20;99.90
12889;DHT22;56848;49.896;11.424;2022-09-27T10:52:06;10.30;99.90
12889;DHT22;56848;49.896;11.424;2022-09-27T10:54:34;10.60;99.90
12889;DHT22;56848;49.896;11.424;2022-09-27T10:59:40;10.40;99.90
12889;DHT22;56848;49.896;11.424;2022-09-27T11:07:35;10.30;99.90
12889;DHT22;56848;49.896;11.424;2022-09-27T11:10:18;9.90;99.90
12889;DHT22;56848;49.896;11.424;2022-09-27T11:38:22;9.00;99.90
12889;DHT22;56848;49.896;11.424;2022-09-27T11:55:58;9.60;99.90
12889;DHT22;56848;49.896;11.424;2022-09-27T12:01:31;9.90;99.90
12889;DHT22;56848;49.896;11.424;2022-09-27T12:07:10;10.50;99.90
12889;DHT22;56848;49.896;11.424;2022-09-27T12:09:42;10.40;99.90
12889;DHT22;56848;49.896;11.424;2022-09-27T12:12:27;10.30;99.90
12889;DHT22;56848;49.896;11.424;2022-09-27T12:15:15;10.50;99.90
12889;DHT22;56848;49.896;11.424;2022-09-27T12:17:45;10.50;99.90
12889;DHT22;56848;49.896;11.424;2022-09-27T12:25:22;10.50;99.90
12889;DHT22;56848;49.896;11.424;2022-09-27T12:27:53;10.50;99.90
12889;DHT22;56848;49.896;11.424;2022-09-27T12:30:21;10.50;99.90
12889;DHT22;56848;49.896;11.424;2022-09-27T12:33:05;10.40;99.90
12889;DHT22;56848;49.896;11.424;2022-09-27T12:35:41;10.30;99.90
12889;DHT22;56848;49.896;11.424;2022-09-27T12:40:42;10.50;99.90
12889;DHT22;56848;49.896;11.424;2022-09-27T12:51:15;11.00;99.90
12889;DHT22;56848;49.896;11.424;2022-09-27T13:07:41;11.40;99.90
12889;DHT22;56848;49.896;11.424;2022-09-27T13:12:50;11.00;99.90
12889;DHT22;56848;49.896;11.424;2022-09-27T13:15:45;11.00;99.90
12889;DHT22;56848;49.896;11.424;2022-09-27T13:20:56;11.60;99.90
12889;DHT22;56848;49.896;11.424;2022-09-27T13:31:04;10.60;99.90
12889;DHT22;56848;49.896;11.424;2022-09-27T13:39:16;10.40;99.90
12889;DHT22;56848;49.896;11.424;2022-09-27T13:46:52;10.30;99.90
12889;DHT22;56848;49.896;11.424;2022-09-27T13:49:23;10.10;99.90
12889;DHT22;56848;49.896;11.424;2022-09-27T13:52:01;9.60;99.90
12889;DHT22;56848;49.896;11.424;2022-09-27T13:54:37;9.50;99.90
12889;DHT22;56848;49.896;11.424;2022-09-27T13:57:04;9.30;99.90
12889;DHT22;56848;49.896;11.424;2022-09-27T13:59:53;9.00;99.90
12889;DHT22;56848;49.896;11.424;2022-09-27T14:05:21;9.10;99.90
12889;DHT22;56848;49.896;11.424;2022-09-27T14:07:49;9.40;99.90
12889;DHT22;56848;49.896;11.424;2022-09-27T14:10:18;9.50;99.90
12889;DHT22;56848;49.896;11.424;2022-09-27T14:12:47;9.60;99.90
12889;DHT22;56848;49.896;11.424;2022-09-27T14:15:20;9.50;99.90
12889;DHT22;56848;49.896;11.424;2022-09-27T14:17:47;9.50;99.90
12889;DHT22;56848;49.896;11.424;2022-09-27T14:20:36;9.30;99.90
12889;DHT22;56848;49.896;11.424;2022-09-27T14:23:03;9.20;99.90
12889;DHT22;56848;49.896;11.424;2022-09-27T14:25:29;9.10;99.90
12889;DHT22;56848;49.896;11.424;2022-09-27T14:27:55;8.90;99.90
12889;DHT22;56848;49.896;11.424;2022-09-27T14:30:24;9.00;99.90
12889;DHT22;56848;49.896;11.424;2022-09-27T14:32:53;9.00;99.90
12889;DHT22;56848;49.896;11.424;2022-09-27T14:35:28;8.90;99.90
12889;DHT22;56848;49.896;11.424;2022-09-27T14:38:16;9.00;99.90
12889;DHT22;56848;49.896;11.424;2022-09-27T14:43:20;8.90;99.90
12889;DHT22;56848;49.896;11.424;2022-09-27T14:45:52;8.80;99.90
12889;DHT22;56848;49.896;11.424;2022-09-27T14:48:31;8.50;99.90
12889;DHT22;56848;49.896;11.424;2022-09-27T14:53:27;8.30;99.90
12889;DHT22;56848;49.896;11.424;2022-09-27T14:55:53;8.20;99.90
12889;DHT22;56848;49.896;11.424;2022-09-27T14:58:20;8.10;99.90
12889;DHT22;56848;49.896;11.424;2022-09-27T15:00:48;8.20;99.90
12889;DHT22;56848;49.896;11.424;2022-09-27T15:03:22;8.30;99.90
12889;DHT22;56848;49.896;11.424;2022-09-27T15:05:49;8.20;99.90
12889;DHT22;56848;49.896;11.424;2022-09-27T15:08:16;8.20;99.90
12889;DHT22;56848;49.896;11.424;2022-09-27T15:10:42;8.20;99.90
12889;DHT22;56848;49.896;11.424;2022-09-27T15:13:15;8.30;99.90
12889;DHT22;56848;49.896;11.424;2022-09-27T15:15:43;8.20;99.90
12889;DHT22;56848;49.896;11.424;2022-09-27T15:18:29;8.30;99.90
12889;DHT22;56848;49.896;11.424;2022-09-27T15:20:55;8.20;99.90
12889;DHT22;56848;49.896;11.424;2022-09-27T15:23:29;8.20;99.90
12889;DHT22;56848;49.896;11.424;2022-09-27T15:26:16;8.30;99.90
12889;DHT22;56848;49.896;11.424;2022-09-27T15:28:48;8.40;99.90
12889;DHT22;56848;49.896;11.424;2022-09-27T15:31:14;8.40;99.90
12889;DHT22;56848;49.896;11.424;2022-09-27T15:33:41;8.60;99.90
12889;DHT22;56848;49.896;11.424;2022-09-27T15:36:09;8.70;99.90
12889;DHT22;56848;49.896;11.424;2022-09-27T15:38:43;8.50;99.90
12889;DHT22;56848;49.896;11.424;2022-09-27T15:41:18;8.50;99.90
12889;DHT22;56848;49.896;11.424;2022-09-27T15:43:49;8.80;99.90
12889;DHT22;56848;49.896;11.424;2022-09-27T15:51:43;8.70;99.90
12889;DHT22;56848;49.896;11.424;2022-09-27T15:54:09;8.50;99.90
12889;DHT22;56848;49.896;11.424;2022-09-27T15:56:35;8.40;99.90
12889;DHT22;56848;49.896;11.424;2022-09-27T15:59:01;8.30;99.90
12889;DHT22;56848;49.896;11.424;2022-09-27T16:01:27;8.20;99.90
12889;DHT22;56848;49.896;11.424;2022-09-27T16:03:52;8.10;99.90
12889;DHT22;56848;49.896;11.424;2022-09-27T16:06:18;8.10;99.90
12889;DHT22;56848;49.896;11.424;2022-09-27T16:08:44;8.20;99.90
12889;DHT22;56848;49.896;11.424;2022-09-27T16:11:14;8.20;99.90
12889;DHT22;56848;49.896;11.424;2022-09-27T16:13:40;8.30;99.90
12889;DHT22;56848;49.896;11.424;2022-09-27T16:16:15;8.40;99.90
12889;DHT22;56848;49.896;11.424;2022-09-27T16:18:43;8.40;99.90
12889;DHT22;56848;49.896;11.424;2022-09-27T16:21:09;8.20;99.90
12889;DHT22;56848;49.896;11.424;2022-09-27T16:23:34;8.20;99.90
12889;DHT22;56848;49.896;11.424;2022-09-27T16:26:00;8.20;99.90
12889;DHT22;56848;49.896;11.424;2022-09-27T16:28:25;8.30;99.90
12889;DHT22;56848;49.896;11.424;2022-09-27T16:30:51;8.20;99.90
12889;DHT22;56848;49.896;11.424;2022-09-27T16:33:17;8.30;99.90
12889;DHT22;56848;49.896;11.424;2022-09-27T16:35:42;8.20;99.90
12889;DHT22;56848;49.896;11.424;2022-09-27T16:38:08;8.10;99.90
12889;DHT22;56848;49.896;11.424;2022-09-27T16:40:35;8.00;99.90
12889;DHT22;56848;49.896;11.424;2022-09-27T16:43:01;7.90;99.90
12889;DHT22;56848;49.896;11.424;2022-09-27T16:45:32;7.90;99.90
12889;DHT22;56848;49.896;11.424;2022-09-27T16:48:00;7.90;99.90
12889;DHT22;56848;49.896;11.424;2022-09-27T16:50:26;7.80;99.90
12889;DHT22;56848;49.896;11.424;2022-09-27T16:53:10;7.80;99.90
12889;DHT22;56848;49.896;11.424;2022-09-27T16:55:37;7.60;99.90
12889;DHT22;56848;49.896;11.424;2022-09-27T16:58:03;7.60;99.90
12889;DHT22;56848;49.896;11.424;2022-09-27T17:00:31;7.40;99.90
12889;DHT22;56848;49.896;11.424;2022-09-27T17:02:58;7.40;99.90
12889;DHT22;56848;49.896;11.424;2022-09-27T17:05:24;7.30;99.90
12889;DHT22;56848;49.896;11.424;2022-09-27T17:07:51;7.30;99.90
12889;DHT22;56848;49.896;11.424;2022-09-27T17:10:21;7.40;99.90
12889;DHT22;56848;49.896;11.424;2022-09-27T17:12:47;7.40;99.90
12889;DHT22;56848;49.896;11.424;2022-09-27T17:15:13;7.30;99.90
12889;DHT22;56848;49.896;11.424;2022-09-27T17:17:39;7.30;99.90
12889;DHT22;56848;49.896;11.424;2022-09-27T17:22:37;7.30;99.90
12889;DHT22;56848;49.896;11.424;2022-09-27T17:25:02;7.30;99.90
12889;DHT22;56848;49.896;11.424;2022-09-27T17:27:28;7.30;99.90
12889;DHT22;56848;49.896;11.424;2022-09-27T17:29:54;7.30;99.90
12889;DHT22;56848;49.896;11.424;2022-09-27T17:32:20;7.40;99.90
12889;DHT22;56848;49.896;11.424;2022-09-27T17:34:46;7.40;99.90
12889;DHT22;56848;49.896;11.424;2022-09-27T17:37:12;7.40;99.90
12889;DHT22;56848;49.896;11.424;2022-09-27T17:39:38;7.40;99.90
12889;DHT22;56848;49.896;11.424;2022-09-27T17:42:03;7.50;99.90
12889;DHT22;56848;49.896;11.424;2022-09-27T17:44:29;7.60;99.90
12889;DHT22;56848;49.896;11.424;2022-09-27T17:46:55;7.60;99.90
12889;DHT22;56848;49.896;11.424;2022-09-27T17:49:39;7.60;99.90
12889;DHT22;56848;49.896;11.424;2022-09-27T17:52:23;7.60;99.90
12889;DHT22;56848;49.896;11.424;2022-09-27T17:54:51;7.60;99.90
12889;DHT22;56848;49.896;11.424;2022-09-27T17:57:20;7.60;99.90
12889;DHT22;56848;49.896;11.424;2022-09-27T17:59:46;7.70;99.90
12889;DHT22;56848;49.896;11.424;2022-09-27T18:02:11;7.70;99.90
12889;DHT22;56848;49.896;11.424;2022-09-27T18:04:37;7.70;99.90
12889;DHT22;56848;49.896;11.424;2022-09-27T18:07:03;7.60;99.90
12889;DHT22;56848;49.896;11.424;2022-09-27T18:09:28;7.50;99.90
12889;DHT22;56848;49.896;11.424;2022-09-27T18:11:54;7.50;99.90
12889;DHT22;56848;49.896;11.424;2022-09-27T18:14:22;7.40;99.90
12889;DHT22;56848;49.896;11.424;2022-09-27T18:16:49;7.40;99.90
12889;DHT22;56848;49.896;11.424;2022-09-27T18:19:15;7.30;99.90
12889;DHT22;56848;49.896;11.424;2022-09-27T18:21:41;7.30;99.90
12889;DHT22;56848;49.896;11.424;2022-09-27T18:24:07;7.30;99.90
12889;DHT22;56848;49.896;11.424;2022-09-27T18:26:35;7.30;99.90
12889;DHT22;56848;49.896;11.424;2022-09-27T18:29:13;7.30;99.90
12889;DHT22;56848;49.896;11.424;2022-09-27T18:31:39;7.30;99.90
12889;DHT22;56848;49.896;11.424;2022-09-27T18:34:05;7.30;99.90
12889;DHT22;56848;49.896;11.424;2022-09-27T18:36:31;7.40;99.90
12889;DHT22;56848;49.896;11.424;2022-09-27T18:38:59;7.40;99.90
12889;DHT22;56848;49.896;11.424;2022-09-27T18:41:27;7.40;99.90
12889;DHT22;56848;49.896;11.424;2022-09-27T18:43:55;7.40;99.90
12889;DHT22;56848;49.896;11.424;2022-09-27T18:46:23;7.30;99.90
12889;DHT22;56848;49.896;11.424;2022-09-27T18:48:49;7.40;99.90
12889;DHT22;56848;49.896;11.424;2022-09-27T18:51:20;7.40;99.90
12889;DHT22;56848;49.896;11.424;2022-09-27T18:53:53;7.30;99.90
12889;DHT22;56848;49.896;11.424;2022-09-27T18:56:19;7.30;99.90
12889;DHT22;56848;49.896;11.424;2022-09-27T18:58:45;7.20;99.90
12889;DHT22;56848;49.896;11.424;2022-09-27T19:01:13;7.10;99.90
12889;DHT22;56848;49.896;11.424;2022-09-27T19:03:39;7.10;99.90
12889;DHT22;56848;49.896;11.424;2022-09-27T19:06:14;7.10;99.90
12889;DHT22;56848;49.896;11.424;2022-09-27T19:08:40;7.00;99.90
12889;DHT22;56848;49.896;11.424;2022-09-27T19:11:12;7.00;99.90
12889;DHT22;56848;49.896;11.424;2022-09-27T19:13:38;7.00;99.90
12889;DHT22;56848;49.896;11.424;2022-09-27T19:16:05;7.00;99.90
12889;DHT22;56848;49.896;11.424;2022-09-27T19:18:31;7.00;99.90
12889;DHT22;56848;49.896;11.424;2022-09-27T19:21:05;7.10;99.90
12889;DHT22;56848;49.896;11.424;2022-09-27T19:23:32;7.00;99.90
12889;DHT22;56848;49.896;11.424;2022-09-27T19:26:00;7.10;99.90
12889;DHT22;56848;49.896;11.424;2022-09-27T19:28:27;7.10;99.90
12889;DHT22;56848;49.896;11.424;2022-09-27T19:30:56;7.20;99.90
12889;DHT22;56848;49.896;11.424;2022-09-27T19:33:22;7.30;99.90
12889;DHT22;56848;49.896;11.424;2022-09-27T19:35:47;7.20;99.90
12889;DHT22;56848;49.896;11.424;2022-09-27T19:38:13;7.20;99.90
12889;DHT22;56848;49.896;11.424;2022-09-27T19:40:39;7.20;99.90
12889;DHT22;56848;49.896;11.424;2022-09-27T19:43:04;7.20;99.90
12889;DHT22;56848;49.896;11.424;2022-09-27T19:45:34;7.20;99.90
12889;DHT22;56848;49.896;11.424;2022-09-27T19:48:00;7.20;99.90
12889;DHT22;56848;49.896;11.424;2022-09-27T19:50:26;7.20;99.90
12889;DHT22;56848;49.896;11.424;2022-09-27T19:52:51;7.20;99.90
12889;DHT22;56848;49.896;11.424;2022-09-27T19:55:17;7.30;99.90
12889;DHT22;56848;49.896;11.424;2022-09-27T19:57:43;7.30;99.90
12889;DHT22;56848;49.896;11.424;2022-09-27T20:00:09;7.30;99.90
12889;DHT22;56848;49.896;11.424;2022-09-27T20:02:34;7.30;99.90
12889;DHT22;56848;49.896;11.424;2022-09-27T20:05:00;7.20;99.90
12889;DHT22;56848;49.896;11.424;2022-09-27T20:07:26;7.20;99.90
12889;DHT22;56848;49.896;11.424;2022-09-27T20:09:51;7.20;99.90
12889;DHT22;56848;49.896;11.424;2022-09-27T20:12:17;7.20;99.90
12889;DHT22;56848;49.896;11.424;2022-09-27T20:14:43;7.20;99.90
12889;DHT22;56848;49.896;11.424;2022-09-27T20:17:09;7.10;99.90
12889;DHT22;56848;49.896;11.424;2022-09-27T20:19:34;7.40;99.90
12889;DHT22;56848;49.896;11.424;2022-09-27T20:22:00;7.10;99.90
12889;DHT22;56848;49.896;11.424;2022-09-27T20:24:26;7.10;99.90
12889;DHT22;56848;49.896;11.424;2022-09-27T20:26:52;7.10;99.90
12889;DHT22;56848;49.896;11.424;2022-09-27T20:29:17;7.10;99.90
12889;DHT22;56848;49.896;11.424;2022-09-27T20:31:43;7.10;99.90
12889;DHT22;56848;49.896;11.424;2022-09-27T20:34:12;7.10;99.90
12889;DHT22;56848;49.896;11.424;2022-09-27T20:36:40;7.00;99.90
12889;DHT22;56848;49.896;11.424;2022-09-27T20:39:13;7.00;99.90
12889;DHT22;56848;49.896;11.424;2022-09-27T20:41:44;7.10;99.90
12889;DHT22;56848;49.896;11.424;2022-09-27T20:44:12;7.00;99.90
12889;DHT22;56848;49.896;11.424;2022-09-27T20:46:39;6.90;99.90
12889;DHT22;56848;49.896;11.424;2022-09-27T20:49:07;6.90;99.90
12889;DHT22;56848;49.896;11.424;2022-09-27T20:51:35;6.90;99.90
12889;DHT22;56848;49.896;11.424;2022-09-27T20:54:01;6.90;99.90
12889;DHT22;56848;49.896;11.424;2022-09-27T20:58:59;6.80;99.90
